Aviation Digital Data Service (ADDS)

Output produced by METARs form (0656 UTC 20 March 2019)
found at http://www.aviationweather.gov/metar/data/
 
METAR text: FGBT 200600Z 00000KT 9999 FEW010 ///// Q1008
Conditions at: FGBT (BATA (RIO MUNI) , GQ) observed 0600 UTC 20 March 2019
Temperature: missing
Dewpoint: missing
Pressure (altimeter): 29.76 inches Hg (1008.0 mb)
Winds: calm
Visibility: 6 or more miles (10+ km)
Ceiling: at least 12,000 feet AGL
Clouds: few clouds at 1000 feet AGL
Weather: no significant weather observed at this time

METAR text: FGBT 200500Z 00000KT 9999 FEW010 ///// Q1008
Conditions at: FGBT (BATA (RIO MUNI) , GQ) observed 0500 UTC 20 March 2019
Temperature: missing
Dewpoint: missing
Pressure (altimeter): 29.76 inches Hg (1008.0 mb)
Winds: calm
Visibility: 6 or more miles (10+ km)
Ceiling: at least 12,000 feet AGL
Clouds: few clouds at 1000 feet AGL
Weather: no significant weather observed at this time

METAR text: FGBT 200400Z 00000KT 9999 FEW010 ///// Q1007
Conditions at: FGBT (BATA (RIO MUNI) , GQ) observed 0400 UTC 20 March 2019
Temperature: missing
Dewpoint: missing
Pressure (altimeter): 29.73 inches Hg (1007.0 mb)
Winds: calm
Visibility: 6 or more miles (10+ km)
Ceiling: at least 12,000 feet AGL
Clouds: few clouds at 1000 feet AGL
Weather: no significant weather observed at this time

METAR text: FGBT 200200Z 00000KT 9999 FEW010 ///// Q1008
Conditions at: FGBT (BATA (RIO MUNI) , GQ) observed 0200 UTC 20 March 2019
Temperature: missing
Dewpoint: missing
Pressure (altimeter): 29.76 inches Hg (1008.0 mb)
Winds: calm
Visibility: 6 or more miles (10+ km)
Ceiling: at least 12,000 feet AGL
Clouds: few clouds at 1000 feet AGL
Weather: no significant weather observed at this time

METAR text: FGBT 200000Z 00000KT 9999 SCT010 ///// Q1009
Conditions at: FGBT (BATA (RIO MUNI) , GQ) observed 0000 UTC 20 March 2019
Temperature: missing
Dewpoint: missing
Pressure (altimeter): 29.79 inches Hg (1009.0 mb)
Winds: calm
Visibility: 6 or more miles (10+ km)
Ceiling: at least 12,000 feet AGL
Clouds: scattered clouds at 1000 feet AGL
Weather: no significant weather observed at this time

METAR text: FGBT 192300Z 00000KT 9999 FEW010 ///// Q1010
Conditions at: FGBT (BATA (RIO MUNI) , GQ) observed 2300 UTC 19 March 2019
Temperature: missing
Dewpoint: missing
Pressure (altimeter): 29.82 inches Hg (1010.0 mb)
Winds: calm
Visibility: 6 or more miles (10+ km)
Ceiling: at least 12,000 feet AGL
Clouds: few clouds at 1000 feet AGL
Weather: no significant weather observed at this time

METAR text: FGBT 192200Z 00000KT 9999 FEW010 ///// Q1011
Conditions at: FGBT (BATA (RIO MUNI) , GQ) observed 2200 UTC 19 March 2019
Temperature: missing
Dewpoint: missing
Pressure (altimeter): 29.85 inches Hg (1011.0 mb)
Winds: calm
Visibility: 6 or more miles (10+ km)
Ceiling: at least 12,000 feet AGL
Clouds: few clouds at 1000 feet AGL
Weather: no significant weather observed at this time

METAR text: FGBT 192100Z 00000KT 9999 FEW010 ///// Q1010
Conditions at: FGBT (BATA (RIO MUNI) , GQ) observed 2100 UTC 19 March 2019
Temperature: missing
Dewpoint: missing
Pressure (altimeter): 29.82 inches Hg (1010.0 mb)
Winds: calm
Visibility: 6 or more miles (10+ km)
Ceiling: at least 12,000 feet AGL
Clouds: few clouds at 1000 feet AGL
Weather: no significant weather observed at this time

METAR text: FGBT 191800Z 26006KT 9999 TS BKN010 FEW020CB ///// Q1007
Conditions at: FGBT (BATA (RIO MUNI) , GQ) observed 1800 UTC 19 March 2019
Temperature: missing
Dewpoint: missing
Pressure (altimeter): 29.73 inches Hg (1007.0 mb)
Winds: from the W (260 degrees) at 7 MPH (6 knots; 3.1 m/s)
Visibility: 6 or more miles (10+ km)
Ceiling: 1000 feet AGL
Clouds: broken clouds at 1000 feet AGL
few clouds at 2000 feet AGL
Weather: TS  (thunderstorm)

METAR text: FGBT 191700Z 27009KT 9999 TS BKN010 FEW020CB ///// Q1006
Conditions at: FGBT (BATA (RIO MUNI) , GQ) observed 1700 UTC 19 March 2019
Temperature: missing
Dewpoint: missing
Pressure (altimeter): 29.70 inches Hg (1006.0 mb)
Winds: from the W (270 degrees) at 10 MPH (9 knots; 4.6 m/s)
Visibility: 6 or more miles (10+ km)
Ceiling: 1000 feet AGL
Clouds: broken clouds at 1000 feet AGL
few clouds at 2000 feet AGL
Weather: TS  (thunderstorm)

METAR text: FGBT 191500Z 25006KT 9999 TS BKN010 FEW020CB ///// Q1006
Conditions at: FGBT (BATA (RIO MUNI) , GQ) observed 1500 UTC 19 March 2019
Temperature: missing
Dewpoint: missing
Pressure (altimeter): 29.70 inches Hg (1006.0 mb)
Winds: from the WSW (250 degrees) at 7 MPH (6 knots; 3.1 m/s)
Visibility: 6 or more miles (10+ km)
Ceiling: 1000 feet AGL
Clouds: broken clouds at 1000 feet AGL
few clouds at 2000 feet AGL
Weather: TS  (thunderstorm)

METAR text: FGBT 191200Z 23009KT 9999 SCT010 31/27 Q1008
Conditions at: FGBT (BATA (RIO MUNI) , GQ) observed 1200 UTC 19 March 2019
Temperature: 31.0°C (88°F)
Dewpoint: 27.0°C (81°F) [RH = 79%]
Pressure (altimeter): 29.76 inches Hg (1008.0 mb)
Winds: from the SW (230 degrees) at 10 MPH (9 knots; 4.6 m/s)
Visibility: 6 or more miles (10+ km)
Ceiling: at least 12,000 feet AGL
Clouds: scattered clouds at 1000 feet AGL
Weather: no significant weather observed at this time

METAR text: FGBT 191100Z 24008KT 210V270 9999 SCT010 31/27 Q1009
Conditions at: FGBT (BATA (RIO MUNI) , GQ) observed 1100 UTC 19 March 2019
Temperature: 31.0°C (88°F)
Dewpoint: 27.0°C (81°F) [RH = 79%]
Pressure (altimeter): 29.79 inches Hg (1009.0 mb)
Winds: from the WSW (240 degrees) at 9 MPH (8 knots; 4.1 m/s)
Visibility: 6 or more miles (10+ km)
Ceiling: at least 12,000 feet AGL
Clouds: scattered clouds at 1000 feet AGL
Weather: no significant weather observed at this time

METAR text: FGBT 191000Z 25005KT 9999 SCT010 31/27 Q1010
Conditions at: FGBT (BATA (RIO MUNI) , GQ) observed 1000 UTC 19 March 2019
Temperature: 31.0°C (88°F)
Dewpoint: 27.0°C (81°F) [RH = 79%]
Pressure (altimeter): 29.82 inches Hg (1010.0 mb)
Winds: from the WSW (250 degrees) at 6 MPH (5 knots; 2.6 m/s)
Visibility: 6 or more miles (10+ km)
Ceiling: at least 12,000 feet AGL
Clouds: scattered clouds at 1000 feet AGL
Weather: no significant weather observed at this time

METAR text: FGBT 190900Z 00000KT 9999 SCT010 FEW020CB ///// Q1010
Conditions at: FGBT (BATA (RIO MUNI) , GQ) observed 0900 UTC 19 March 2019
Temperature: missing
Dewpoint: missing
Pressure (altimeter): 29.82 inches Hg (1010.0 mb)
Winds: calm
Visibility: 6 or more miles (10+ km)
Ceiling: at least 12,000 feet AGL
Clouds: scattered clouds at 1000 feet AGL
few clouds at 2000 feet AGL
Weather: no significant weather observed at this time

METAR text: FGBT 190800Z 00000KT 9999 SCT010 FEW020CB 31/27 Q1009
Conditions at: FGBT (BATA (RIO MUNI) , GQ) observed 0800 UTC 19 March 2019
Temperature: 31.0°C (88°F)
Dewpoint: 27.0°C (81°F) [RH = 79%]
Pressure (altimeter): 29.79 inches Hg (1009.0 mb)
Winds: calm
Visibility: 6 or more miles (10+ km)
Ceiling: at least 12,000 feet AGL
Clouds: scattered clouds at 1000 feet AGL
few clouds at 2000 feet AGL
Weather: no significant weather observed at this time

METAR text: FGBT 190600Z 00000KT 9999 SCT010 ///// Q1009
Conditions at: FGBT (BATA (RIO MUNI) , GQ) observed 0600 UTC 19 March 2019
Temperature: missing
Dewpoint: missing
Pressure (altimeter): 29.79 inches Hg (1009.0 mb)
Winds: calm
Visibility: 6 or more miles (10+ km)
Ceiling: at least 12,000 feet AGL
Clouds: scattered clouds at 1000 feet AGL
Weather: no significant weather observed at this time

METAR text: FGBT 190500Z 00000KT 9999 SCT010 ///// Q1007
Conditions at: FGBT (BATA (RIO MUNI) , GQ) observed 0500 UTC 19 March 2019
Temperature: missing
Dewpoint: missing
Pressure (altimeter): 29.73 inches Hg (1007.0 mb)
Winds: calm
Visibility: 6 or more miles (10+ km)
Ceiling: at least 12,000 feet AGL
Clouds: scattered clouds at 1000 feet AGL
Weather: no significant weather observed at this time

METAR text: FGBT 190400Z 00000KT 9999 SCT010 ///// Q1008
Conditions at: FGBT (BATA (RIO MUNI) , GQ) observed 0400 UTC 19 March 2019
Temperature: missing
Dewpoint: missing
Pressure (altimeter): 29.76 inches Hg (1008.0 mb)
Winds: calm
Visibility: 6 or more miles (10+ km)
Ceiling: at least 12,000 feet AGL
Clouds: scattered clouds at 1000 feet AGL
Weather: no significant weather observed at this time

METAR text: FGBT 190300Z 00000KT 9999 SCT010 ///// Q1008
Conditions at: FGBT (BATA (RIO MUNI) , GQ) observed 0300 UTC 19 March 2019
Temperature: missing
Dewpoint: missing
Pressure (altimeter): 29.76 inches Hg (1008.0 mb)
Winds: calm
Visibility: 6 or more miles (10+ km)
Ceiling: at least 12,000 feet AGL
Clouds: scattered clouds at 1000 feet AGL
Weather: no significant weather observed at this time

METAR text: FGBT 190200Z 00000KT 9999 SCT010 ///// Q1008
Conditions at: FGBT (BATA (RIO MUNI) , GQ) observed 0200 UTC 19 March 2019
Temperature: missing
Dewpoint: missing
Pressure (altimeter): 29.76 inches Hg (1008.0 mb)
Winds: calm
Visibility: 6 or more miles (10+ km)
Ceiling: at least 12,000 feet AGL
Clouds: scattered clouds at 1000 feet AGL
Weather: no significant weather observed at this time

METAR text: FGBT 190000Z 16003KT 9999 SCT010 27/26 Q1009
Conditions at: FGBT (BATA (RIO MUNI) , GQ) observed 0000 UTC 19 March 2019
Temperature: 27.0°C (81°F)
Dewpoint: 26.0°C (79°F) [RH = 94%]
Pressure (altimeter): 29.79 inches Hg (1009.0 mb)
Winds: from the SSE (160 degrees) at 3 MPH (3 knots; 1.5 m/s)
Visibility: 6 or more miles (10+ km)
Ceiling: at least 12,000 feet AGL
Clouds: scattered clouds at 1000 feet AGL
Weather: no significant weather observed at this time

METAR text: FGBT 182300Z 00000KT 9999 SCT010 27/27 Q1010
Conditions at: FGBT (BATA (RIO MUNI) , GQ) observed 2300 UTC 18 March 2019
Temperature: 27.0°C (81°F)
Dewpoint: 27.0°C (81°F) [RH = 100%]
Pressure (altimeter): 29.82 inches Hg (1010.0 mb)
Winds: calm
Visibility: 6 or more miles (10+ km)
Ceiling: at least 12,000 feet AGL
Clouds: scattered clouds at 1000 feet AGL
Weather: no significant weather observed at this time

METAR text: FGBT 182000Z 11004KT 080V140 9999 TS SCT010 FEW018CB 28/27 Q1009
Conditions at: FGBT (BATA (RIO MUNI) , GQ) observed 2000 UTC 18 March 2019
Temperature: 28.0°C (82°F)
Dewpoint: 27.0°C (81°F) [RH = 94%]
Pressure (altimeter): 29.79 inches Hg (1009.0 mb)
Winds: from the ESE (110 degrees) at 5 MPH (4 knots; 2.1 m/s)
Visibility: 6 or more miles (10+ km)
Ceiling: at least 12,000 feet AGL
Clouds: scattered clouds at 1000 feet AGL
few clouds at 1800 feet AGL
Weather: TS  (thunderstorm)

METAR text: FGBT 181900Z 15005KT 9999 TS SCT010 FEW018CB 29/27 Q1009
Conditions at: FGBT (BATA (RIO MUNI) , GQ) observed 1900 UTC 18 March 2019
Temperature: 29.0°C (84°F)
Dewpoint: 27.0°C (81°F) [RH = 89%]
Pressure (altimeter): 29.79 inches Hg (1009.0 mb)
Winds: from the SSE (150 degrees) at 6 MPH (5 knots; 2.6 m/s)
Visibility: 6 or more miles (10+ km)
Ceiling: at least 12,000 feet AGL
Clouds: scattered clouds at 1000 feet AGL
few clouds at 1800 feet AGL
Weather: TS  (thunderstorm)

Forecast for: FGBT (BATA (RIO MUNI) , GQ)
Text: TAF FGBT 200500Z 2006/2106 22008KT 9999 SCT010
Forecast period: 0600 UTC 20 March 2019 to 0600 UTC 21 March 2019
Forecast type: FROM: standard forecast or significant change
Winds: from the SW (220 degrees) at 9 MPH (8 knots; 4.1 m/s)
Visibility: 6 or more miles 10+ km)
Ceiling: at least 12,000 feet AGL
Clouds: scattered clouds at 1000 feet AGL
Weather: no significant weather forecast for this period
Text: PROB30
Forecast period: 1500 to 2000 UTC 20 March 2019
Forecast type: TEMPORARY: The following changes expected for less than half the time period
Visibility: missing
Ceiling: 1000 feet AGL
Clouds: broken clouds at 1000 feet AGL
few clouds at 2000 feet AGL
Weather: TS  (thunderstorm)